Time;durP1;ratioP1;P1;durP2;ratioP2;P2;SDS_P1;SDS_P2;PMS_P1;PMS_P2;Temp;Humidity;BMP_temperature;BMP_pressure;BME280_temperature;BME280_humidity;BME280_pressure;Samples;Min_cycle;Max_cycle;Signal;HPM_P1;HPM_P2
2023/06/16 00:00:25;;;;;;;72.85;10.65;;;;;;;;;;5042464;28;20024;-46
2023/06/16 00:02:52;;;;;;;71.28;10.02;;;;;;;;;;5036482;28;20037;-45
2023/06/16 00:05:21;;;;;;;88.93;11.10;;;;;;;;;;5040838;28;20021;-48
2023/06/16 00:07:48;;;;;;;73.38;9.88;;;;;;;;;;5041876;28;20034;-48
2023/06/16 00:10:15;;;;;;;84.38;10.52;;;;;;;;;;5039412;28;20021;-49
2023/06/16 00:12:42;;;;;;;78.20;9.60;;;;;;;;;;5033734;28;20037;-48
2023/06/16 00:15:09;;;;;;;78.60;11.13;;;;;;;;;;5046848;28;20376;-48
2023/06/16 00:17:44;;;;;;;68.13;10.43;;;;;;;;;;5053023;28;20028;-47
2023/06/16 00:20:12;;;;;;;78.85;9.93;;;;;;;;;;5052597;28;20037;-49
2023/06/16 00:22:39;;;;;;;90.13;11.35;;;;;;;;;;5032514;28;20443;-47
2023/06/16 00:25:07;;;;;;;81.13;10.18;;;;;;;;;;5032657;28;20033;-48
2023/06/16 00:27:34;;;;;;;72.70;10.48;;;;;;;;;;5051703;28;20033;-49
2023/06/16 00:30:01;;;;;;;76.10;10.38;;;;;;;;;;5040723;28;20119;-47
2023/06/16 00:32:28;;;;;;;77.50;10.40;;;;;;;;;;5051040;28;20041;-48
2023/06/16 00:34:55;;;;;;;83.32;11.60;;;;;;;;;;5035575;28;20471;-49
2023/06/16 00:37:22;;;;;;;67.70;10.77;;;;;;;;;;5043967;28;20037;-48
2023/06/16 00:39:49;;;;;;;86.20;12.13;;;;;;;;;;5033854;28;20033;-48
2023/06/16 00:42:16;;;;;;;75.05;10.90;;;;;;;;;;5052499;28;20037;-48
2023/06/16 00:44:43;;;;;;;90.18;10.95;;;;;;;;;;5052187;28;20520;-51
2023/06/16 00:47:10;;;;;;;72.35;10.98;;;;;;;;;;5052238;28;20017;-49
2023/06/16 00:49:37;;;;;;;76.30;11.57;;;;;;;;;;5052295;28;20383;-48
2023/06/16 00:52:07;;;;;;;84.70;12.02;;;;;;;;;;5052135;28;20025;-51
2023/06/16 00:54:34;;;;;;;67.72;11.05;;;;;;;;;;5051775;28;20033;-48
2023/06/16 00:57:02;;;;;;;79.28;11.98;;;;;;;;;;5038111;28;20033;-48
2023/06/16 00:59:29;;;;;;;69.07;11.40;;;;;;;;;;5052079;28;20028;-49
2023/06/16 01:01:56;;;;;;;75.97;10.35;;;;;;;;;;5051694;28;20025;-51
2023/06/16 01:04:24;;;;;;;75.40;10.13;;;;;;;;;;5052012;28;20482;-48
2023/06/16 01:07:20;;;;;;;75.65;10.50;;;;;;;;;;5051944;28;20017;-48
2023/06/16 01:09:51;;;;;;;65.28;10.95;;;;;;;;;;5050057;28;20045;-49
2023/06/16 01:12:32;;;;;;;66.15;10.80;;;;;;;;;;5050649;28;20413;-48
2023/06/16 01:15:10;;;;;;;68.40;10.32;;;;;;;;;;5034713;28;20087;-51
2023/06/16 01:17:43;;;;;;;60.33;10.32;;;;;;;;;;5036287;28;20023;-49
2023/06/16 01:20:37;;;;;;;67.15;10.50;;;;;;;;;;5036475;28;20479;-48
2023/06/16 01:23:11;;;;;;;57.60;10.02;;;;;;;;;;5040917;28;20034;-46
2023/06/16 01:25:39;;;;;;;64.70;11.57;;;;;;;;;;5036017;28;20492;-51
2023/06/16 01:28:07;;;;;;;60.05;10.18;;;;;;;;;;5041733;28;20047;-51
2023/06/16 01:30:35;;;;;;;64.65;10.90;;;;;;;;;;5041237;28;20056;-48
2023/06/16 01:33:03;;;;;;;64.95;11.98;;;;;;;;;;5033525;28;20415;-47
2023/06/16 01:35:30;;;;;;;79.40;12.20;;;;;;;;;;5030705;28;20032;-48
2023/06/16 01:37:58;;;;;;;59.85;11.18;;;;;;;;;;5028814;28;20108;-49
2023/06/16 01:40:26;;;;;;;70.13;11.38;;;;;;;;;;5030328;28;20021;-49
2023/06/16 01:42:54;;;;;;;65.03;11.05;;;;;;;;;;5027389;28;20045;-50
2023/06/16 01:45:21;;;;;;;58.00;11.23;;;;;;;;;;5027395;28;20036;-46
2023/06/16 01:47:48;;;;;;;55.88;11.60;;;;;;;;;;5029950;28;20036;-49
2023/06/16 01:50:16;;;;;;;70.45;11.05;;;;;;;;;;5029862;28;20033;-49
2023/06/16 01:52:43;;;;;;;57.67;11.90;;;;;;;;;;5026710;28;20029;-46
2023/06/16 01:55:10;;;;;;;59.75;10.32;;;;;;;;;;5029374;28;20025;-50
2023/06/16 01:57:37;;;;;;;60.97;11.32;;;;;;;;;;5027858;28;20115;-52
2023/06/16 02:00:13;;;;;;;57.72;10.48;;;;;;;;;;5029860;28;20426;-50
2023/06/16 02:02:42;;;;;;;58.78;9.95;;;;;;;;;;5007123;28;20444;-48
2023/06/16 02:05:11;;;;;;;43.83;10.20;;;;;;;;;;5028594;28;20021;-50
2023/06/16 02:07:40;;;;;;;47.28;10.50;;;;;;;;;;5030735;28;20040;-48
2023/06/16 02:10:07;;;;;;;53.13;11.10;;;;;;;;;;5031307;28;20025;-49
2023/06/16 02:12:34;;;;;;;46.42;9.93;;;;;;;;;;5031424;28;20064;-49
2023/06/16 02:15:02;;;;;;;58.85;11.13;;;;;;;;;;5031395;28;20084;-50
2023/06/16 02:17:29;;;;;;;53.78;10.05;;;;;;;;;;5031429;28;20060;-48
2023/06/16 02:19:58;;;;;;;47.28;9.82;;;;;;;;;;5030964;28;20033;-48
2023/06/16 02:22:25;;;;;;;49.75;9.43;;;;;;;;;;5031095;28;20049;-48
2023/06/16 02:24:52;;;;;;;43.95;9.45;;;;;;;;;;5031063;28;20399;-49
2023/06/16 02:27:19;;;;;;;46.30;9.85;;;;;;;;;;5031152;28;20013;-48
2023/06/16 02:29:46;;;;;;;52.83;10.50;;;;;;;;;;5031044;28;20029;-47
2023/06/16 02:32:13;;;;;;;41.75;9.25;;;;;;;;;;5038949;28;20072;-48
2023/06/16 02:34:43;;;;;;;48.92;10.48;;;;;;;;;;5051216;28;20041;-51
2023/06/16 02:37:12;;;;;;;44.58;8.82;;;;;;;;;;5050746;28;20459;-47
2023/06/16 02:39:42;;;;;;;40.40;9.80;;;;;;;;;;5050819;28;20033;-51
2023/06/16 02:42:10;;;;;;;38.40;8.25;;;;;;;;;;5051035;28;20107;-48
2023/06/16 02:44:37;;;;;;;43.97;9.15;;;;;;;;;;5051200;28;20037;-49
2023/06/16 02:47:05;;;;;;;42.83;9.07;;;;;;;;;;5051003;28;20048;-49
2023/06/16 02:49:32;;;;;;;34.15;8.95;;;;;;;;;;5050921;28;20025;-49
2023/06/16 02:51:59;;;;;;;38.20;8.90;;;;;;;;;;5050820;28;20041;-48
2023/06/16 02:54:26;;;;;;;34.97;8.20;;;;;;;;;;5050982;28;20039;-49
2023/06/16 02:56:53;;;;;;;36.47;8.27;;;;;;;;;;5051843;28;20028;-49
2023/06/16 02:59:20;;;;;;;33.45;7.88;;;;;;;;;;5054620;28;20021;-49
2023/06/16 03:01:48;;;;;;;33.97;8.13;;;;;;;;;;5054575;28;20037;-48
2023/06/16 03:04:15;;;;;;;30.88;7.63;;;;;;;;;;5054651;28;20069;-52
2023/06/16 03:06:44;;;;;;;30.33;7.57;;;;;;;;;;5054647;28;20021;-53
2023/06/16 03:09:12;;;;;;;35.53;7.93;;;;;;;;;;5054383;28;20086;-49
2023/06/16 03:11:39;;;;;;;41.95;7.90;;;;;;;;;;5054474;28;20398;-49
2023/06/16 03:14:07;;;;;;;28.25;7.57;;;;;;;;;;5054512;28;20025;-52
2023/06/16 03:16:35;;;;;;;30.00;7.35;;;;;;;;;;5054394;28;20087;-49
2023/06/16 03:19:02;;;;;;;31.52;7.45;;;;;;;;;;5054369;28;20036;-49
2023/06/16 03:21:28;;;;;;;27.73;7.57;;;;;;;;;;5054311;28;20041;-49
2023/06/16 03:23:55;;;;;;;26.23;6.78;;;;;;;;;;5054127;28;20029;-49
2023/06/16 03:26:24;;;;;;;25.42;6.85;;;;;;;;;;5054310;28;20078;-48
2023/06/16 03:28:51;;;;;;;28.30;7.35;;;;;;;;;;5054155;28;20064;-50
2023/06/16 03:31:19;;;;;;;26.60;7.00;;;;;;;;;;5054016;28;20017;-48
2023/06/16 03:33:46;;;;;;;28.30;6.88;;;;;;;;;;5054018;28;20028;-48
2023/06/16 03:36:13;;;;;;;21.75;6.88;;;;;;;;;;5053953;28;20032;-48
2023/06/16 03:38:40;;;;;;;24.25;6.43;;;;;;;;;;5054135;28;20517;-49
2023/06/16 03:41:07;;;;;;;26.13;6.15;;;;;;;;;;5053960;28;20021;-48
2023/06/16 03:43:34;;;;;;;29.33;7.05;;;;;;;;;;5054002;28;20032;-49
2023/06/16 03:46:02;;;;;;;26.35;6.35;;;;;;;;;;5053976;28;20483;-47
2023/06/16 03:48:29;;;;;;;27.83;6.07;;;;;;;;;;5053887;28;20029;-48
2023/06/16 03:50:56;;;;;;;23.00;6.45;;;;;;;;;;5053780;28;20032;-49
2023/06/16 03:53:22;;;;;;;17.70;5.68;;;;;;;;;;5053811;28;20384;-48
2023/06/16 03:55:50;;;;;;;25.48;6.13;;;;;;;;;;5053839;28;20078;-49
2023/06/16 03:58:17;;;;;;;21.02;6.07;;;;;;;;;;5053730;28;20021;-47
2023/06/16 04:00:44;;;;;;;25.35;6.40;;;;;;;;;;5053575;28;20025;-47
2023/06/16 04:03:12;;;;;;;23.52;5.85;;;;;;;;;;5053633;28;20036;-48
2023/06/16 04:05:39;;;;;;;20.30;5.35;;;;;;;;;;5053578;28;20483;-48
2023/06/16 04:08:06;;;;;;;22.77;6.30;;;;;;;;;;5052859;28;20021;-47
2023/06/16 04:10:33;;;;;;;23.17;5.60;;;;;;;;;;5053024;28;20037;-47
2023/06/16 04:13:00;;;;;;;20.05;5.72;;;;;;;;;;5053438;28;20032;-47
2023/06/16 04:15:27;;;;;;;24.38;6.22;;;;;;;;;;5053452;28;20104;-48
2023/06/16 04:17:54;;;;;;;19.58;5.47;;;;;;;;;;5053393;28;20060;-49
2023/06/16 04:20:21;;;;;;;18.95;5.50;;;;;;;;;;5053251;28;20690;-48
2023/06/16 04:22:48;;;;;;;17.17;5.28;;;;;;;;;;5053191;28;20032;-48
2023/06/16 04:25:17;;;;;;;17.23;5.47;;;;;;;;;;5053271;28;20033;-48
2023/06/16 04:27:46;;;;;;;18.90;4.93;;;;;;;;;;5053261;28;20090;-49
2023/06/16 04:30:13;;;;;;;19.45;5.32;;;;;;;;;;5052884;28;20033;-48
2023/06/16 04:32:40;;;;;;;18.98;4.82;;;;;;;;;;5052972;28;20510;-47
2023/06/16 04:35:07;;;;;;;18.40;5.15;;;;;;;;;;5052958;28;20474;-48
2023/06/16 04:37:34;;;;;;;20.13;5.45;;;;;;;;;;5052951;28;20494;-47
2023/06/16 04:40:03;;;;;;;17.65;4.88;;;;;;;;;;5052886;28;20032;-49
2023/06/16 04:42:30;;;;;;;17.58;5.10;;;;;;;;;;5052593;28;20044;-47
2023/06/16 04:44:59;;;;;;;17.55;4.80;;;;;;;;;;5052897;28;20025;-50
2023/06/16 04:47:27;;;;;;;17.48;4.80;;;;;;;;;;5052662;28;20040;-48
2023/06/16 04:49:54;;;;;;;16.13;4.75;;;;;;;;;;5052697;28;20021;-48
2023/06/16 04:52:21;;;;;;;13.82;4.63;;;;;;;;;;5052783;28;20076;-48
2023/06/16 04:54:48;;;;;;;15.30;4.53;;;;;;;;;;5052749;28;20032;-48
2023/06/16 04:57:15;;;;;;;14.32;4.30;;;;;;;;;;5052569;28;20083;-48
2023/06/16 04:59:42;;;;;;;16.08;4.60;;;;;;;;;;5052477;28;20033;-47
2023/06/16 05:02:09;;;;;;;13.73;4.00;;;;;;;;;;5052418;28;20033;-48
2023/06/16 05:04:38;;;;;;;13.85;4.20;;;;;;;;;;5052454;28;20025;-49
2023/06/16 05:07:05;;;;;;;12.55;4.20;;;;;;;;;;5052286;28;20060;-48
2023/06/16 05:09:32;;;;;;;15.27;4.40;;;;;;;;;;5052260;28;20037;-48
2023/06/16 05:11:59;;;;;;;11.68;3.50;;;;;;;;;;5052344;28;20035;-50
2023/06/16 05:14:26;;;;;;;16.45;4.63;;;;;;;;;;5052279;28;20021;-49
2023/06/16 05:16:53;;;;;;;12.20;3.80;;;;;;;;;;5052227;28;20036;-49
2023/06/16 05:19:20;;;;;;;14.70;4.18;;;;;;;;;;5052054;28;20025;-50
2023/06/16 05:21:47;;;;;;;10.95;3.65;;;;;;;;;;5052098;28;20402;-48
2023/06/16 05:24:14;;;;;;;16.45;4.38;;;;;;;;;;5052061;28;20033;-49
2023/06/16 05:26:41;;;;;;;9.68;3.58;;;;;;;;;;5051845;28;20082;-51
2023/06/16 05:29:09;;;;;;;10.75;3.40;;;;;;;;;;5051912;28;20021;-47
2023/06/16 05:31:38;;;;;;;12.45;3.55;;;;;;;;;;5051689;28;20045;-47
2023/06/16 05:34:05;;;;;;;10.88;3.20;;;;;;;;;;5051814;28;20100;-47
2023/06/16 05:36:35;;;;;;;14.80;3.95;;;;;;;;;;5051921;28;20041;-47
2023/06/16 05:39:02;;;;;;;10.27;3.70;;;;;;;;;;5051626;28;20029;-47
2023/06/16 05:41:29;;;;;;;15.75;4.00;;;;;;;;;;5051836;28;20024;-48
2023/06/16 05:43:57;;;;;;;12.85;3.85;;;;;;;;;;5051886;28;20056;-47
2023/06/16 05:46:24;;;;;;;14.45;4.15;;;;;;;;;;5051774;28;20021;-48
2023/06/16 05:48:51;;;;;;;12.77;3.50;;;;;;;;;;5051613;28;20045;-47
2023/06/16 05:51:18;;;;;;;9.13;3.00;;;;;;;;;;5051761;28;20044;-48
2023/06/16 05:53:45;;;;;;;14.10;3.83;;;;;;;;;;5051697;28;20059;-47
2023/06/16 05:56:12;;;;;;;8.40;3.25;;;;;;;;;;5051721;28;20778;-49
2023/06/16 05:58:40;;;;;;;10.95;3.40;;;;;;;;;;5051640;28;20037;-47
2023/06/16 06:01:07;;;;;;;12.23;3.35;;;;;;;;;;5050197;28;20037;-47
2023/06/16 06:03:34;;;;;;;10.00;3.15;;;;;;;;;;5051168;28;20036;-48
2023/06/16 06:06:01;;;;;;;11.45;3.58;;;;;;;;;;5051557;28;20074;-48
2023/06/16 06:08:28;;;;;;;12.48;3.47;;;;;;;;;;5051543;28;20025;-49
2023/06/16 06:10:56;;;;;;;8.85;3.25;;;;;;;;;;5051431;28;20487;-48
2023/06/16 06:13:23;;;;;;;8.80;3.10;;;;;;;;;;5033463;28;20402;-49
2023/06/16 06:15:50;;;;;;;8.88;3.42;;;;;;;;;;5051421;28;20471;-48
2023/06/16 06:18:17;;;;;;;13.07;3.45;;;;;;;;;;5051457;28;20541;-50
2023/06/16 06:20:45;;;;;;;9.60;3.28;;;;;;;;;;5051318;28;20171;-48
2023/06/16 06:23:13;;;;;;;9.07;3.45;;;;;;;;;;5051319;28;20067;-48
2023/06/16 06:25:41;;;;;;;7.10;2.88;;;;;;;;;;5051351;28;20029;-49
2023/06/16 06:28:09;;;;;;;10.25;3.38;;;;;;;;;;5051215;28;20786;-48
2023/06/16 06:30:37;;;;;;;8.85;3.17;;;;;;;;;;5051116;28;20021;-48
2023/06/16 06:33:04;;;;;;;11.05;3.03;;;;;;;;;;5054020;28;20049;-48
2023/06/16 06:35:31;;;;;;;7.45;3.00;;;;;;;;;;5055095;28;20086;-49
2023/06/16 06:37:59;;;;;;;5.57;2.35;;;;;;;;;;5055214;28;20028;-48
2023/06/16 06:40:26;;;;;;;8.35;2.78;;;;;;;;;;5055099;28;20047;-48
2023/06/16 06:42:53;;;;;;;8.75;2.60;;;;;;;;;;5055022;28;20072;-48
2023/06/16 06:45:20;;;;;;;7.85;3.03;;;;;;;;;;5055040;28;20033;-48
2023/06/16 06:47:47;;;;;;;7.75;2.88;;;;;;;;;;5055105;28;20021;-48
2023/06/16 06:50:14;;;;;;;7.70;2.72;;;;;;;;;;5054938;28;20064;-48
2023/06/16 06:52:41;;;;;;;6.78;2.75;;;;;;;;;;5055030;28;20025;-47
2023/06/16 06:55:09;;;;;;;7.25;2.67;;;;;;;;;;5055000;28;20033;-47
2023/06/16 06:57:36;;;;;;;9.32;2.72;;;;;;;;;;5054957;28;20478;-48
2023/06/16 07:00:03;;;;;;;11.05;2.88;;;;;;;;;;5054672;28;20033;-48
2023/06/16 07:02:30;;;;;;;7.18;2.78;;;;;;;;;;5054739;28;20063;-48
2023/06/16 07:04:57;;;;;;;5.95;2.30;;;;;;;;;;5054780;28;20467;-49
2023/06/16 07:07:24;;;;;;;7.85;2.60;;;;;;;;;;5054715;28;20028;-49
2023/06/16 07:09:51;;;;;;;5.80;2.55;;;;;;;;;;5054559;28;20075;-47
2023/06/16 07:12:18;;;;;;;5.80;2.70;;;;;;;;;;5054734;28;20423;-50
2023/06/16 07:14:48;;;;;;;7.25;2.40;;;;;;;;;;5054566;28;20079;-50
2023/06/16 07:17:15;;;;;;;7.82;2.55;;;;;;;;;;5054502;28;20051;-47
2023/06/16 07:19:42;;;;;;;6.20;2.33;;;;;;;;;;5054483;28;20056;-51
2023/06/16 07:22:09;;;;;;;6.50;2.65;;;;;;;;;;5054396;28;20790;-47
2023/06/16 07:24:37;;;;;;;7.10;3.03;;;;;;;;;;5054399;28;20104;-49
2023/06/16 07:27:04;;;;;;;6.57;2.60;;;;;;;;;;5054373;28;20021;-47
2023/06/16 07:29:31;;;;;;;6.65;2.47;;;;;;;;;;5179129;23;20064;-35
2023/06/16 07:31:58;;;;;;;7.00;2.42;;;;;;;;;;5054270;28;20068;-36
2023/06/16 07:34:25;;;;;;;4.60;2.28;;;;;;;;;;5054230;28;20021;-36
2023/06/16 07:36:52;;;;;;;10.35;2.90;;;;;;;;;;5054165;28;20025;-36
2023/06/16 07:39:21;;;;;;;4.45;2.30;;;;;;;;;;5054026;28;20025;-36
2023/06/16 07:41:48;;;;;;;5.80;2.50;;;;;;;;;;5053943;28;20044;-36
2023/06/16 07:44:15;;;;;;;6.68;2.78;;;;;;;;;;5052714;28;20021;-36
2023/06/16 07:46:45;;;;;;;5.78;2.40;;;;;;;;;;5054025;28;20099;-35
2023/06/16 07:49:16;;;;;;;8.82;2.70;;;;;;;;;;5053775;28;20132;-36
2023/06/16 07:51:43;;;;;;;8.88;2.55;;;;;;;;;;5053948;28;20048;-35
2023/06/16 07:54:10;;;;;;;5.60;2.20;;;;;;;;;;5053828;28;20028;-35
2023/06/16 07:56:38;;;;;;;5.20;2.00;;;;;;;;;;5053629;28;20025;-36
2023/06/16 07:59:06;;;;;;;5.82;2.20;;;;;;;;;;5053566;28;20067;-36
2023/06/16 08:01:33;;;;;;;5.57;1.88;;;;;;;;;;5053305;28;20033;-36
2023/06/16 08:04:00;;;;;;;6.18;2.47;;;;;;;;;;5053637;28;20024;-36
2023/06/16 08:06:27;;;;;;;6.00;2.22;;;;;;;;;;5053561;28;20048;-35
2023/06/16 08:08:55;;;;;;;4.80;2.17;;;;;;;;;;5053367;28;20021;-35
2023/06/16 08:11:22;;;;;;;6.72;2.60;;;;;;;;;;5053424;28;20064;-36
2023/06/16 08:13:49;;;;;;;4.18;2.08;;;;;;;;;;5053253;28;20091;-35
2023/06/16 08:16:16;;;;;;;5.95;2.35;;;;;;;;;;5053378;28;20482;-35
2023/06/16 08:18:43;;;;;;;4.45;2.00;;;;;;;;;;5053269;28;20056;-36
2023/06/16 08:21:10;;;;;;;4.95;2.30;;;;;;;;;;5053192;28;20025;-36
2023/06/16 08:23:37;;;;;;;4.70;2.08;;;;;;;;;;5053301;28;20525;-35
2023/06/16 08:26:05;;;;;;;6.22;2.40;;;;;;;;;;5053241;28;20021;-35
2023/06/16 08:28:32;;;;;;;5.78;2.28;;;;;;;;;;5052830;28;20070;-36
2023/06/16 08:30:59;;;;;;;6.07;2.22;;;;;;;;;;5053082;28;20548;-36
2023/06/16 08:33:26;;;;;;;6.00;2.60;;;;;;;;;;5053045;28;20051;-36
2023/06/16 08:35:53;;;;;;;6.32;2.20;;;;;;;;;;5053108;28;20020;-36
2023/06/16 08:38:20;;;;;;;4.72;2.38;;;;;;;;;;5052843;28;20017;-36
2023/06/16 08:40:48;;;;;;;7.03;2.20;;;;;;;;;;5052902;28;20437;-36
2023/06/16 08:43:15;;;;;;;4.90;2.53;;;;;;;;;;5052862;28;20047;-36
2023/06/16 08:45:42;;;;;;;7.70;2.35;;;;;;;;;;5052849;28;20052;-35
2023/06/16 08:48:11;;;;;;;6.82;2.40;;;;;;;;;;5052716;28;20115;-36
2023/06/16 08:50:40;;;;;;;7.55;2.50;;;;;;;;;;5052663;28;20033;-36
2023/06/16 08:53:08;;;;;;;4.75;2.13;;;;;;;;;;5052512;28;20494;-36
2023/06/16 08:55:40;;;;;;;4.00;1.95;;;;;;;;;;5052079;28;20108;-37
2023/06/16 08:58:13;;;;;;;5.80;2.10;;;;;;;;;;5052491;28;20488;-36
2023/06/16 09:00:40;;;;;;;;;;;;;;;;;;5052912;28;20063;-36
2023/06/16 09:03:08;;;;;;;5.03;2.00;;;;;;;;;;5052513;28;19923;-35
2023/06/16 09:05:36;;;;;;;4.75;2.35;;;;;;;;;;5052344;28;20024;-35
2023/06/16 09:08:06;;;;;;;7.93;2.42;;;;;;;;;;5052246;28;20493;-35
2023/06/16 09:10:34;;;;;;;5.55;2.20;;;;;;;;;;5052375;28;20394;-36
2023/06/16 09:13:02;;;;;;;3.78;2.17;;;;;;;;;;5052119;28;20037;-36
2023/06/16 09:15:29;;;;;;;6.78;2.22;;;;;;;;;;5050985;28;20040;-38
2023/06/16 09:17:56;;;;;;;4.47;2.28;;;;;;;;;;5050684;28;20057;-36
2023/06/16 09:20:24;;;;;;;5.97;2.20;;;;;;;;;;5050862;28;20104;-37
2023/06/16 09:22:59;;;;;;;4.05;2.25;;;;;;;;;;5050962;28;20075;-37
2023/06/16 09:25:26;;;;;;;4.80;2.25;;;;;;;;;;5051287;28;20040;-36
2023/06/16 09:27:55;;;;;;;5.75;2.30;;;;;;;;;;5051304;28;20087;-36
2023/06/16 09:30:23;;;;;;;4.82;2.47;;;;;;;;;;5051130;28;20048;-38
2023/06/16 09:32:51;;;;;;;9.27;2.47;;;;;;;;;;5051045;28;20060;-36
2023/06/16 09:35:25;;;;;;;7.75;2.22;;;;;;;;;;5051295;28;20028;-38
2023/06/16 09:37:53;;;;;;;8.35;2.30;;;;;;;;;;5049215;28;20116;-35
2023/06/16 09:40:27;;;;;;;8.73;2.00;;;;;;;;;;5051093;28;20706;-38
2023/06/16 09:42:58;;;;;;;11.20;2.67;;;;;;;;;;5051450;28;20032;-38
2023/06/16 09:45:31;;;;;;;15.18;2.05;;;;;;;;;;5050878;28;20095;-36
2023/06/16 09:47:58;;;;;;;13.52;2.42;;;;;;;;;;5051235;28;20043;-38
2023/06/16 09:50:26;;;;;;;6.55;2.03;;;;;;;;;;5051374;28;20082;-38
2023/06/16 09:52:56;;;;;;;9.18;2.72;;;;;;;;;;5051514;28;20091;-38
2023/06/16 09:55:27;;;;;;;9.50;2.10;;;;;;;;;;5051584;28;20049;-38
2023/06/16 09:57:55;;;;;;;13.38;2.47;;;;;;;;;;5051424;28;20025;-38
2023/06/16 10:00:24;;;;;;;8.50;1.95;;;;;;;;;;5051531;28;20021;-39
2023/06/16 10:02:51;;;;;;;5.15;2.00;;;;;;;;;;5051354;28;20043;-38
2023/06/16 10:05:19;;;;;;;9.10;2.20;;;;;;;;;;5051599;28;20033;-39
2023/06/16 10:07:48;;;;;;;6.63;1.95;;;;;;;;;;5038581;28;20030;-37
2023/06/16 10:10:16;;;;;;;6.15;1.83;;;;;;;;;;5038516;28;20367;-37
2023/06/16 10:12:49;;;;;;;11.30;2.00;;;;;;;;;;5050894;28;20400;-38
2023/06/16 10:15:38;;;;;;;9.38;2.20;;;;;;;;;;5051428;28;20045;-39
2023/06/16 10:18:06;;;;;;;6.68;2.10;;;;;;;;;;5049131;28;20025;-38
2023/06/16 10:20:34;;;;;;;9.13;2.00;;;;;;;;;;5051053;28;20048;-39
2023/06/16 10:23:01;;;;;;;7.45;2.22;;;;;;;;;;5051112;28;20072;-39
2023/06/16 10:25:32;;;;;;;5.53;2.10;;;;;;;;;;5050730;28;20035;-38
2023/06/16 10:28:01;;;;;;;6.50;2.00;;;;;;;;;;5049845;28;20021;-37
2023/06/16 10:30:28;;;;;;;7.07;1.70;;;;;;;;;;5050628;28;20053;-38
2023/06/16 10:33:00;;;;;;;7.15;1.95;;;;;;;;;;5051046;28;20037;-39
2023/06/16 10:35:27;;;;;;;8.73;2.20;;;;;;;;;;5049882;28;20808;-37
2023/06/16 10:37:55;;;;;;;13.32;2.42;;;;;;;;;;5049965;28;20036;-37
2023/06/16 10:40:23;;;;;;;8.48;1.88;;;;;;;;;;5044486;28;20060;-37
2023/06/16 10:42:52;;;;;;;3.45;1.60;;;;;;;;;;5051007;28;20029;-36
2023/06/16 10:45:31;;;;;;;8.30;1.88;;;;;;;;;;5050566;28;20119;-38
2023/06/16 10:48:11;;;;;;;9.70;2.25;;;;;;;;;;5043389;28;20033;-40
2023/06/16 10:50:46;;;;;;;7.03;1.90;;;;;;;;;;5048943;28;20398;-41
2023/06/16 10:53:17;;;;;;;7.10;1.85;;;;;;;;;;5050580;28;20029;-40
2023/06/16 10:55:45;;;;;;;9.07;2.05;;;;;;;;;;5050709;28;20070;-41
2023/06/16 10:58:15;;;;;;;7.60;1.83;;;;;;;;;;5050670;28;20113;-40
2023/06/16 11:00:47;;;;;;;13.27;1.92;;;;;;;;;;5048636;28;20067;-40
2023/06/16 11:03:14;;;;;;;8.18;2.30;;;;;;;;;;5050268;28;20112;-40
2023/06/16 11:05:48;;;;;;;6.22;1.92;;;;;;;;;;5050479;28;20028;-42
2023/06/16 11:08:17;;;;;;;9.15;1.73;;;;;;;;;;5050362;28;20037;-42
2023/06/16 11:10:50;;;;;;;11.25;1.95;;;;;;;;;;5047709;28;20086;-42
2023/06/16 11:13:23;;;;;;;8.30;1.80;;;;;;;;;;5049822;28;20024;-43
2023/06/16 11:15:56;;;;;;;8.52;1.90;;;;;;;;;;5049941;28;20474;-41
2023/06/16 11:18:26;;;;;;;23.50;2.78;;;;;;;;;;5051781;28;20448;-39
2023/06/16 11:21:00;;;;;;;34.83;3.60;;;;;;;;;;5054231;28;20112;-39
2023/06/16 11:23:28;;;;;;;43.88;2.65;;;;;;;;;;5045613;28;20546;-43
2023/06/16 11:26:08;;;;;;;41.00;3.33;;;;;;;;;;5052837;28;20024;-39
2023/06/16 11:28:40;;;;;;;42.38;3.40;;;;;;;;;;5049429;28;20048;-38
2023/06/16 11:31:07;;;;;;;278.25;19.10;;;;;;;;;;5053022;28;20118;-43
2023/06/16 11:33:35;;;;;;;169.32;11.07;;;;;;;;;;5051890;28;20075;-42
2023/06/16 11:36:21;;;;;;;78.72;6.30;;;;;;;;;;5052790;28;20048;-41
2023/06/16 11:38:50;;;;;;;76.18;6.32;;;;;;;;;;5048706;28;20033;-39
2023/06/16 11:41:18;;;;;;;69.97;7.57;;;;;;;;;;5052602;28;20033;-38
2023/06/16 11:43:46;;;;;;;61.70;6.40;;;;;;;;;;5053028;28;20029;-40
2023/06/16 11:46:13;;;;;;;61.42;6.63;;;;;;;;;;5052566;28;20025;-40
2023/06/16 11:48:40;;;;;;;326.42;22.08;;;;;;;;;;5051450;28;20033;-37
2023/06/16 11:51:07;;;;;;;218.40;13.38;;;;;;;;;;5034973;28;20580;-40
2023/06/16 11:53:35;;;;;;;114.15;8.50;;;;;;;;;;5053009;28;20091;-41
2023/06/16 11:56:06;;;;;;;54.92;5.65;;;;;;;;;;5052948;28;20044;-38
2023/06/16 11:58:34;;;;;;;54.03;6.00;;;;;;;;;;5049116;28;20492;-38
2023/06/16 12:01:03;;;;;;;63.72;5.88;;;;;;;;;;5051509;28;20024;-39
2023/06/16 12:03:36;;;;;;;121.82;12.80;;;;;;;;;;5052097;28;20394;-37
2023/06/16 12:06:05;;;;;;;147.57;15.50;;;;;;;;;;5052438;28;20031;-39
2023/06/16 12:08:36;;;;;;;103.45;10.75;;;;;;;;;;5051800;28;20047;-39
2023/06/16 12:11:05;;;;;;;86.32;9.60;;;;;;;;;;5032690;28;20378;-41
2023/06/16 12:13:35;;;;;;;86.72;9.40;;;;;;;;;;5050483;28;20125;-42
2023/06/16 12:16:06;;;;;;;81.30;9.18;;;;;;;;;;5051207;28;20079;-43
2023/06/16 12:18:33;;;;;;;93.93;10.65;;;;;;;;;;5052050;28;20125;-44
2023/06/16 12:21:20;;;;;;;85.85;10.10;;;;;;;;;;5050911;28;20122;-42
2023/06/16 12:23:54;;;;;;;77.35;10.82;;;;;;;;;;5050237;28;20045;-40
2023/06/16 12:26:26;;;;;;;107.68;12.60;;;;;;;;;;5052136;28;20871;-43
2023/06/16 12:28:54;;;;;;;89.65;11.27;;;;;;;;;;5051109;28;20057;-40
2023/06/16 12:31:26;;;;;;;107.55;12.02;;;;;;;;;;5049343;28;20078;-42
2023/06/16 12:33:54;;;;;;;89.67;11.80;;;;;;;;;;5052248;28;20070;-38
2023/06/16 12:36:22;;;;;;;97.00;13.95;;;;;;;;;;5051947;28;20103;-42
2023/06/16 12:38:52;;;;;;;87.18;12.20;;;;;;;;;;5051399;28;20029;-41
2023/06/16 12:41:19;;;;;;;83.47;11.55;;;;;;;;;;5050535;28;20024;-38
2023/06/16 12:43:50;;;;;;;86.63;11.20;;;;;;;;;;5049139;28;20033;-39
2023/06/16 12:46:18;;;;;;;67.00;9.20;;;;;;;;;;5033946;28;20033;-39
2023/06/16 12:48:45;;;;;;;86.25;10.65;;;;;;;;;;5051652;28;20025;-40
2023/06/16 12:51:13;;;;;;;51.80;8.38;;;;;;;;;;5051310;28;20082;-38
2023/06/16 12:53:43;;;;;;;68.85;9.68;;;;;;;;;;5049377;28;20032;-40
2023/06/16 12:56:11;;;;;;;77.10;10.75;;;;;;;;;;5051443;28;20490;-37
2023/06/16 12:58:40;;;;;;;66.20;9.52;;;;;;;;;;5051473;28;20025;-40
2023/06/16 13:01:08;;;;;;;56.20;8.52;;;;;;;;;;5051702;28;20075;-41
2023/06/16 13:03:36;;;;;;;51.55;8.73;;;;;;;;;;5049940;28;20087;-37
2023/06/16 13:06:04;;;;;;;63.85;9.77;;;;;;;;;;5052145;28;20036;-36
2023/06/16 13:08:31;;;;;;;58.10;8.23;;;;;;;;;;5051581;28;20029;-36
2023/06/16 13:10:58;;;;;;;53.08;8.57;;;;;;;;;;5051557;28;20048;-39
2023/06/16 13:13:25;;;;;;;63.63;9.70;;;;;;;;;;5050439;28;20498;-41
2023/06/16 13:15:52;;;;;;;83.10;9.20;;;;;;;;;;5051255;28;20497;-40
2023/06/16 13:18:20;;;;;;;74.65;9.25;;;;;;;;;;5051059;28;20029;-39
2023/06/16 13:20:48;;;;;;;59.03;8.25;;;;;;;;;;5050794;28;20059;-45
2023/06/16 13:23:15;;;;;;;52.45;7.82;;;;;;;;;;5050976;28;20033;-39
2023/06/16 13:25:42;;;;;;;57.78;7.93;;;;;;;;;;5049715;28;20132;-39
2023/06/16 13:28:09;;;;;;;55.97;8.68;;;;;;;;;;5047333;28;20466;-39
2023/06/16 13:30:36;;;;;;;50.67;7.80;;;;;;;;;;5050140;28;20037;-43
2023/06/16 13:33:03;;;;;;;54.53;8.63;;;;;;;;;;5048264;28;20021;-39
2023/06/16 13:35:30;;;;;;;50.25;7.45;;;;;;;;;;5049215;28;20056;-41
2023/06/16 13:37:57;;;;;;;53.92;8.13;;;;;;;;;;5050783;28;20043;-40
2023/06/16 13:40:24;;;;;;;61.85;7.90;;;;;;;;;;5050785;28;20025;-40
2023/06/16 13:42:51;;;;;;;45.17;7.10;;;;;;;;;;5050691;28;20029;-44
2023/06/16 13:45:18;;;;;;;43.00;7.40;;;;;;;;;;5051071;28;20017;-40
2023/06/16 13:47:45;;;;;;;47.25;7.80;;;;;;;;;;5050897;28;20029;-41
2023/06/16 13:50:12;;;;;;;48.20;6.78;;;;;;;;;;5050970;28;20378;-41
2023/06/16 13:52:40;;;;;;;42.80;7.00;;;;;;;;;;5050886;28;20088;-42
2023/06/16 13:55:07;;;;;;;42.95;6.30;;;;;;;;;;5050195;28;20039;-41
2023/06/16 13:57:34;;;;;;;47.08;7.57;;;;;;;;;;5050435;28;20047;-40
2023/06/16 14:00:02;;;;;;;45.13;7.13;;;;;;;;;;5050879;28;20013;-41
2023/06/16 14:02:29;;;;;;;37.63;6.63;;;;;;;;;;5049879;28;20116;-42
2023/06/16 14:04:56;;;;;;;45.88;6.90;;;;;;;;;;5050743;28;20036;-41
2023/06/16 14:07:23;;;;;;;38.30;7.13;;;;;;;;;;5050571;28;20017;-39
2023/06/16 14:09:50;;;;;;;37.38;6.53;;;;;;;;;;5050713;28;20037;-41
2023/06/16 14:12:16;;;;;;;47.03;7.03;;;;;;;;;;5050680;28;20048;-42
2023/06/16 14:14:43;;;;;;;50.05;7.10;;;;;;;;;;5050452;28;20025;-43
2023/06/16 14:17:11;;;;;;;35.03;7.05;;;;;;;;;;5050279;28;20360;-41
2023/06/16 14:19:38;;;;;;;42.70;7.78;;;;;;;;;;5014881;28;20029;-40
2023/06/16 14:22:05;;;;;;;50.55;6.72;;;;;;;;;;5049338;28;20078;-40
2023/06/16 14:24:32;;;;;;;39.95;6.47;;;;;;;;;;5050618;28;20040;-40
2023/06/16 14:26:59;;;;;;;48.45;7.53;;;;;;;;;;5050188;28;20037;-44
2023/06/16 14:29:26;;;;;;;37.45;5.82;;;;;;;;;;5050545;28;20056;-42
2023/06/16 14:31:53;;;;;;;41.13;6.03;;;;;;;;;;5049098;28;20078;-41
2023/06/16 14:34:26;;;;;;;33.05;5.72;;;;;;;;;;5050825;28;20025;-40
2023/06/16 14:36:54;;;;;;;34.08;6.13;;;;;;;;;;5049658;28;20075;-38